sensor_id;sensor_type;location;lat;lon;timestamp;pressure;altitude;pressure_sealevel;temperature;humidity
1652;BME280;823;49.028;8.454;2023-04-28T00:01:00;100184.75;;;17.68;41.93
1652;BME280;823;49.028;8.454;2023-04-28T00:06:01;100189.69;;;17.73;41.84
1652;BME280;823;49.028;8.454;2023-04-28T00:11:01;100185.38;;;17.72;41.09
1652;BME280;823;49.028;8.454;2023-04-28T00:16:01;100184.34;;;17.75;41.42
1652;BME280;823;49.028;8.454;2023-04-28T00:21:02;100188.00;;;17.72;42.09
1652;BME280;823;49.028;8.454;2023-04-28T00:26:02;100175.00;;;17.70;42.83
1652;BME280;823;49.028;8.454;2023-04-28T00:31:09;100164.28;;;17.75;42.44
1652;BME280;823;49.028;8.454;2023-04-28T00:36:10;100156.19;;;17.65;41.96
1652;BME280;823;49.028;8.454;2023-04-28T00:41:11;100155.22;;;17.53;42.22
1652;BME280;823;49.028;8.454;2023-04-28T00:46:19;100160.44;;;17.53;41.78
1652;BME280;823;49.028;8.454;2023-04-28T00:51:20;100152.06;;;17.48;43.00
1652;BME280;823;49.028;8.454;2023-04-28T00:56:21;100145.13;;;17.34;44.41
1652;BME280;823;49.028;8.454;2023-04-28T01:01:22;100124.56;;;17.15;46.06
1652;BME280;823;49.028;8.454;2023-04-28T01:06:22;100138.81;;;16.97;47.32
1652;BME280;823;49.028;8.454;2023-04-28T01:11:23;100129.22;;;16.83;48.21
1652;BME280;823;49.028;8.454;2023-04-28T01:16:23;100119.94;;;16.64;48.71
1652;BME280;823;49.028;8.454;2023-04-28T01:21:31;100121.19;;;16.59;49.30
1652;BME280;823;49.028;8.454;2023-04-28T01:26:31;100113.00;;;16.50;49.84
1652;BME280;823;49.028;8.454;2023-04-28T01:31:32;100118.75;;;16.56;50.58
1652;BME280;823;49.028;8.454;2023-04-28T01:36:32;100126.56;;;16.56;51.56
1652;BME280;823;49.028;8.454;2023-04-28T01:41:33;100122.19;;;16.56;51.30
1652;BME280;823;49.028;8.454;2023-04-28T01:46:33;100126.56;;;16.56;51.85
1652;BME280;823;49.028;8.454;2023-04-28T01:51:34;100117.44;;;16.48;52.80
1652;BME280;823;49.028;8.454;2023-04-28T01:56:34;100130.59;;;16.47;52.73
1652;BME280;823;49.028;8.454;2023-04-28T02:01:35;100119.41;;;16.30;53.41
1652;BME280;823;49.028;8.454;2023-04-28T02:06:35;100120.56;;;16.41;53.46
1652;BME280;823;49.028;8.454;2023-04-28T02:11:35;100122.84;;;16.31;53.90
1652;BME280;823;49.028;8.454;2023-04-28T02:16:36;100119.53;;;16.14;54.88
1652;BME280;823;49.028;8.454;2023-04-28T02:21:36;100122.31;;;15.97;54.81
1652;BME280;823;49.028;8.454;2023-04-28T02:26:36;100105.72;;;15.83;55.28
1652;BME280;823;49.028;8.454;2023-04-28T02:31:37;100144.47;;;15.90;54.60
1652;BME280;823;49.028;8.454;2023-04-28T02:36:38;100125.28;;;15.91;54.05
1652;BME280;823;49.028;8.454;2023-04-28T02:41:38;100132.66;;;15.98;53.47
1652;BME280;823;49.028;8.454;2023-04-28T02:46:38;100120.81;;;16.07;52.54
1652;BME280;823;49.028;8.454;2023-04-28T02:51:39;100133.13;;;16.05;53.07
1652;BME280;823;49.028;8.454;2023-04-28T02:56:39;100137.59;;;16.17;53.46
1652;BME280;823;49.028;8.454;2023-04-28T03:01:40;100127.91;;;16.20;53.59
1652;BME280;823;49.028;8.454;2023-04-28T03:06:41;100132.66;;;16.27;53.66
1652;BME280;823;49.028;8.454;2023-04-28T03:11:41;100127.44;;;16.27;53.74
1652;BME280;823;49.028;8.454;2023-04-28T03:16:41;100126.97;;;16.35;53.83
1652;BME280;823;49.028;8.454;2023-04-28T03:21:42;100123.44;;;16.36;53.55
1652;BME280;823;49.028;8.454;2023-04-28T03:26:42;100106.84;;;16.37;53.66
1652;BME280;823;49.028;8.454;2023-04-28T03:31:42;100104.22;;;16.37;53.53
1652;BME280;823;49.028;8.454;2023-04-28T03:36:43;100108.53;;;16.38;53.30
1652;BME280;823;49.028;8.454;2023-04-28T03:41:43;100098.81;;;16.40;53.23
1652;BME280;823;49.028;8.454;2023-04-28T03:46:43;100092.88;;;16.38;53.34
1652;BME280;823;49.028;8.454;2023-04-28T03:51:44;100101.88;;;16.47;53.36
1652;BME280;823;49.028;8.454;2023-04-28T03:56:44;100092.09;;;16.50;52.89
1652;BME280;823;49.028;8.454;2023-04-28T04:01:45;100097.84;;;16.56;53.04
1652;BME280;823;49.028;8.454;2023-04-28T04:06:45;100095.78;;;16.61;52.83
1652;BME280;823;49.028;8.454;2023-04-28T04:11:46;100086.94;;;16.63;52.81
1652;BME280;823;49.028;8.454;2023-04-28T04:16:46;100084.22;;;16.65;52.63
1652;BME280;823;49.028;8.454;2023-04-28T04:21:47;100078.81;;;16.68;52.85
1652;BME280;823;49.028;8.454;2023-04-28T04:26:47;100070.59;;;16.74;52.62
1652;BME280;823;49.028;8.454;2023-04-28T04:31:48;100059.94;;;16.77;52.93
1652;BME280;823;49.028;8.454;2023-04-28T04:36:48;100052.22;;;16.76;53.07
1652;BME280;823;49.028;8.454;2023-04-28T04:41:49;100059.00;;;16.78;53.28
1652;BME280;823;49.028;8.454;2023-04-28T04:46:49;100048.47;;;16.80;53.22
1652;BME280;823;49.028;8.454;2023-04-28T04:51:49;100057.56;;;16.87;52.93
1652;BME280;823;49.028;8.454;2023-04-28T04:56:50;100057.41;;;16.90;52.76
1652;BME280;823;49.028;8.454;2023-04-28T05:01:50;100051.97;;;16.93;53.15
1652;BME280;823;49.028;8.454;2023-04-28T05:06:50;100058.66;;;16.97;52.86
1652;BME280;823;49.028;8.454;2023-04-28T05:11:51;100069.78;;;17.01;53.00
1652;BME280;823;49.028;8.454;2023-04-28T05:16:52;100072.69;;;16.96;53.00
1652;BME280;823;49.028;8.454;2023-04-28T05:21:52;100071.84;;;16.96;53.26
1652;BME280;823;49.028;8.454;2023-04-28T05:26:57;100059.34;;;16.87;52.85
1652;BME280;823;49.028;8.454;2023-04-28T05:31:57;100056.72;;;17.01;52.63
1652;BME280;823;49.028;8.454;2023-04-28T05:36:58;100051.38;;;17.02;52.91
1652;BME280;823;49.028;8.454;2023-04-28T05:41:58;100048.47;;;17.07;53.11
1652;BME280;823;49.028;8.454;2023-04-28T05:46:58;100043.44;;;17.04;52.86
1652;BME280;823;49.028;8.454;2023-04-28T05:51:59;100053.94;;;17.17;53.31
1652;BME280;823;49.028;8.454;2023-04-28T05:56:59;100048.06;;;17.13;53.76
1652;BME280;823;49.028;8.454;2023-04-28T06:02:01;100048.16;;;17.12;54.05
1652;BME280;823;49.028;8.454;2023-04-28T06:07:01;100048.06;;;17.13;54.02
1652;BME280;823;49.028;8.454;2023-04-28T06:12:01;100029.88;;;17.12;54.46
1652;BME280;823;49.028;8.454;2023-04-28T06:17:03;100037.16;;;16.94;55.45
1652;BME280;823;49.028;8.454;2023-04-28T06:22:03;100038.63;;;16.98;56.32
1652;BME280;823;49.028;8.454;2023-04-28T06:27:04;100033.88;;;16.90;56.95
1652;BME280;823;49.028;8.454;2023-04-28T06:32:05;100036.44;;;16.77;57.58
1652;BME280;823;49.028;8.454;2023-04-28T06:37:05;100034.16;;;16.85;58.23
1652;BME280;823;49.028;8.454;2023-04-28T06:42:06;100033.34;;;16.85;59.06
1652;BME280;823;49.028;8.454;2023-04-28T06:47:06;100032.69;;;16.54;60.01
1652;BME280;823;49.028;8.454;2023-04-28T06:52:06;100041.47;;;16.80;59.44
1652;BME280;823;49.028;8.454;2023-04-28T06:57:07;100043.97;;;16.82;60.18
1652;BME280;823;49.028;8.454;2023-04-28T07:02:07;100044.59;;;16.58;62.14
1652;BME280;823;49.028;8.454;2023-04-28T07:07:08;100052.91;;;16.65;62.69
1652;BME280;823;49.028;8.454;2023-04-28T07:12:09;100049.00;;;16.58;63.22
1652;BME280;823;49.028;8.454;2023-04-28T07:17:09;100042.66;;;16.62;63.24
1652;BME280;823;49.028;8.454;2023-04-28T07:22:09;100071.47;;;16.60;63.63
1652;BME280;823;49.028;8.454;2023-04-28T07:27:10;100086.38;;;16.58;64.40
1652;BME280;823;49.028;8.454;2023-04-28T07:32:10;100092.72;;;16.54;65.12
1652;BME280;823;49.028;8.454;2023-04-28T07:37:11;100100.28;;;16.59;65.09
1652;BME280;823;49.028;8.454;2023-04-28T07:42:11;100078.34;;;16.61;65.39
1652;BME280;823;49.028;8.454;2023-04-28T07:47:12;100070.88;;;16.69;65.46
1652;BME280;823;49.028;8.454;2023-04-28T07:52:13;100076.78;;;16.59;66.70
1652;BME280;823;49.028;8.454;2023-04-28T07:57:13;100076.78;;;16.59;66.51
1652;BME280;823;49.028;8.454;2023-04-28T08:02:13;100078.94;;;16.52;67.02
1652;BME280;823;49.028;8.454;2023-04-28T08:07:14;100084.56;;;16.31;68.64
1652;BME280;823;49.028;8.454;2023-04-28T08:12:14;100092.47;;;16.59;67.77
1652;BME280;823;49.028;8.454;2023-04-28T08:17:16;100094.25;;;16.29;69.37
1652;BME280;823;49.028;8.454;2023-04-28T08:22:17;100087.97;;;16.61;68.70
1652;BME280;823;49.028;8.454;2023-04-28T08:27:17;100093.91;;;16.77;68.52
1652;BME280;823;49.028;8.454;2023-04-28T08:32:17;100102.50;;;16.65;69.33
1652;BME280;823;49.028;8.454;2023-04-28T08:37:18;100095.38;;;16.81;69.19
1652;BME280;823;49.028;8.454;2023-04-28T08:42:18;100095.56;;;16.93;69.68
1652;BME280;823;49.028;8.454;2023-04-28T08:47:20;100093.50;;;16.83;70.46
1652;BME280;823;49.028;8.454;2023-04-28T08:52:22;100102.34;;;17.23;69.53
1652;BME280;823;49.028;8.454;2023-04-28T08:57:26;100095.34;;;17.23;69.91
1652;BME280;823;49.028;8.454;2023-04-28T09:02:27;100093.81;;;17.33;69.17
1652;BME280;823;49.028;8.454;2023-04-28T09:07:27;100095.41;;;17.49;69.25
1652;BME280;823;49.028;8.454;2023-04-28T09:12:37;100096.06;;;17.65;69.31
1652;BME280;823;49.028;8.454;2023-04-28T09:17:50;100091.44;;;17.82;69.21
1652;BME280;823;49.028;8.454;2023-04-28T09:22:52;100094.81;;;17.97;69.17
1652;BME280;823;49.028;8.454;2023-04-28T09:27:53;100079.63;;;18.02;68.92
1652;BME280;823;49.028;8.454;2023-04-28T09:33:03;100082.66;;;18.09;68.79
1652;BME280;823;49.028;8.454;2023-04-28T09:38:04;100071.56;;;18.18;68.34
1652;BME280;823;49.028;8.454;2023-04-28T09:43:22;100077.25;;;17.99;69.04
1652;BME280;823;49.028;8.454;2023-04-28T09:48:35;100085.69;;;18.02;68.58
1652;BME280;823;49.028;8.454;2023-04-28T09:53:35;100074.91;;;18.20;69.05
1652;BME280;823;49.028;8.454;2023-04-28T09:58:39;100072.59;;;18.28;69.29
1652;BME280;823;49.028;8.454;2023-04-28T10:03:40;100079.22;;;18.45;69.64
1652;BME280;823;49.028;8.454;2023-04-28T10:08:41;100071.72;;;18.65;68.78
1652;BME280;823;49.028;8.454;2023-04-28T10:13:42;100066.53;;;18.89;68.53
1652;BME280;823;49.028;8.454;2023-04-28T10:18:46;100072.78;;;18.99;68.05
1652;BME280;823;49.028;8.454;2023-04-28T10:29:05;100076.78;;;18.92;67.08
1652;BME280;823;49.028;8.454;2023-04-28T10:34:22;100078.81;;;18.88;67.63
1652;BME280;823;49.028;8.454;2023-04-28T10:39:24;100087.63;;;18.75;68.16
1652;BME280;823;49.028;8.454;2023-04-28T10:55:28;100092.09;;;19.45;68.48
1652;BME280;823;49.028;8.454;2023-04-28T11:00:31;100089.00;;;19.29;68.26
1652;BME280;823;49.028;8.454;2023-04-28T11:05:32;100087.97;;;19.18;67.99
1652;BME280;823;49.028;8.454;2023-04-28T11:16:09;100077.81;;;19.02;68.34
1652;BME280;823;49.028;8.454;2023-04-28T11:21:10;100076.28;;;19.11;68.04
1652;BME280;823;49.028;8.454;2023-04-28T11:26:10;100070.25;;;19.22;68.97
1652;BME280;823;49.028;8.454;2023-04-28T11:31:15;100067.44;;;19.48;68.83
1652;BME280;823;49.028;8.454;2023-04-28T11:36:25;100069.63;;;19.65;68.24
1652;BME280;823;49.028;8.454;2023-04-28T11:41:27;100067.38;;;19.61;67.05
1652;BME280;823;49.028;8.454;2023-04-28T11:46:27;100070.69;;;19.51;67.79
1652;BME280;823;49.028;8.454;2023-04-28T11:51:33;100059.59;;;19.59;67.51
1652;BME280;823;49.028;8.454;2023-04-28T11:56:38;100057.94;;;19.58;67.75
1652;BME280;823;49.028;8.454;2023-04-28T12:01:52;100051.50;;;19.73;67.93
1652;BME280;823;49.028;8.454;2023-04-28T12:07:06;100055.72;;;19.99;67.56
1652;BME280;823;49.028;8.454;2023-04-28T12:12:11;100058.81;;;20.15;66.93
1652;BME280;823;49.028;8.454;2023-04-28T12:17:22;100061.56;;;20.14;66.34
1652;BME280;823;49.028;8.454;2023-04-28T12:22:23;100044.75;;;19.94;66.92
1652;BME280;823;49.028;8.454;2023-04-28T12:27:24;100056.78;;;20.07;67.24
1652;BME280;823;49.028;8.454;2023-04-28T12:32:39;100052.16;;;20.00;66.80
1652;BME280;823;49.028;8.454;2023-04-28T12:37:41;100057.66;;;19.97;66.42
1652;BME280;823;49.028;8.454;2023-04-28T12:42:42;100048.69;;;19.99;66.84
1652;BME280;823;49.028;8.454;2023-04-28T12:47:42;100058.94;;;20.25;66.69
1652;BME280;823;49.028;8.454;2023-04-28T12:52:43;100047.81;;;20.33;66.42
1652;BME280;823;49.028;8.454;2023-04-28T12:57:43;100052.56;;;20.39;66.56
1652;BME280;823;49.028;8.454;2023-04-28T13:02:43;100061.91;;;20.32;66.22
1652;BME280;823;49.028;8.454;2023-04-28T13:07:44;100057.00;;;20.38;65.75
1652;BME280;823;49.028;8.454;2023-04-28T13:12:44;100051.53;;;20.30;65.50
1652;BME280;823;49.028;8.454;2023-04-28T13:17:45;100060.25;;;19.85;66.08
1652;BME280;823;49.028;8.454;2023-04-28T13:22:46;100048.69;;;19.88;65.91
1652;BME280;823;49.028;8.454;2023-04-28T13:27:47;100036.59;;;19.74;66.98
1652;BME280;823;49.028;8.454;2023-04-28T13:32:47;100037.59;;;19.84;67.55
1652;BME280;823;49.028;8.454;2023-04-28T13:37:47;100034.13;;;19.84;65.67
1652;BME280;823;49.028;8.454;2023-04-28T13:42:48;100024.56;;;20.05;65.45
1652;BME280;823;49.028;8.454;2023-04-28T13:47:48;100027.56;;;19.89;65.02
1652;BME280;823;49.028;8.454;2023-04-28T13:52:51;100030.91;;;20.03;65.33
1652;BME280;823;49.028;8.454;2023-04-28T13:57:54;100010.47;;;20.18;64.39
1652;BME280;823;49.028;8.454;2023-04-28T14:02:55;100000.44;;;20.12;64.05
1652;BME280;823;49.028;8.454;2023-04-28T14:07:55;100005.56;;;20.36;64.33
1652;BME280;823;49.028;8.454;2023-04-28T14:12:56;100002.41;;;20.53;63.89
1652;BME280;823;49.028;8.454;2023-04-28T14:17:56;99994.59;;;20.74;62.89
1652;BME280;823;49.028;8.454;2023-04-28T14:22:57;100002.22;;;20.99;63.37
1652;BME280;823;49.028;8.454;2023-04-28T14:27:58;99980.94;;;21.23;63.26
1652;BME280;823;49.028;8.454;2023-04-28T14:32:59;99971.16;;;21.35;62.70
1652;BME280;823;49.028;8.454;2023-04-28T14:37:59;99983.50;;;21.34;61.45
1652;BME280;823;49.028;8.454;2023-04-28T14:43:00;99977.31;;;21.45;60.77
1652;BME280;823;49.028;8.454;2023-04-28T14:48:00;99978.59;;;21.20;60.90
1652;BME280;823;49.028;8.454;2023-04-28T14:53:01;99980.28;;;21.31;60.74
1652;BME280;823;49.028;8.454;2023-04-28T14:58:06;99971.13;;;21.25;60.61
1652;BME280;823;49.028;8.454;2023-04-28T15:03:06;99982.06;;;21.51;60.24
1652;BME280;823;49.028;8.454;2023-04-28T15:08:07;99973.00;;;21.65;59.56
1652;BME280;823;49.028;8.454;2023-04-28T15:13:07;99970.34;;;21.55;59.55
1652;BME280;823;49.028;8.454;2023-04-28T15:18:08;99968.84;;;21.41;59.09
1652;BME280;823;49.028;8.454;2023-04-28T15:23:09;99980.69;;;21.26;60.42
1652;BME280;823;49.028;8.454;2023-04-28T15:28:09;99970.00;;;20.75;61.34
1652;BME280;823;49.028;8.454;2023-04-28T15:33:10;99976.56;;;20.70;62.00
1652;BME280;823;49.028;8.454;2023-04-28T15:38:16;99978.94;;;20.73;62.28
1652;BME280;823;49.028;8.454;2023-04-28T15:43:16;99982.94;;;20.45;63.44
1652;BME280;823;49.028;8.454;2023-04-28T15:48:17;99983.94;;;20.44;63.58
1652;BME280;823;49.028;8.454;2023-04-28T15:53:17;99982.63;;;20.38;64.22
1652;BME280;823;49.028;8.454;2023-04-28T15:58:18;99984.25;;;20.50;64.44
1652;BME280;823;49.028;8.454;2023-04-28T16:03:19;99961.69;;;20.48;65.18
1652;BME280;823;49.028;8.454;2023-04-28T16:08:20;99955.56;;;20.58;65.06
1652;BME280;823;49.028;8.454;2023-04-28T16:13:23;99940.53;;;20.61;64.80
1652;BME280;823;49.028;8.454;2023-04-28T16:18:23;99959.38;;;20.66;64.03
1652;BME280;823;49.028;8.454;2023-04-28T16:23:24;99946.69;;;20.71;64.06
1652;BME280;823;49.028;8.454;2023-04-28T16:28:24;99955.31;;;20.73;63.75
1652;BME280;823;49.028;8.454;2023-04-28T16:33:26;99948.56;;;20.80;64.05
1652;BME280;823;49.028;8.454;2023-04-28T16:38:26;99955.50;;;20.81;63.31
1652;BME280;823;49.028;8.454;2023-04-28T16:43:26;99958.06;;;20.71;62.66
1652;BME280;823;49.028;8.454;2023-04-28T16:48:27;99946.06;;;20.79;62.82
1652;BME280;823;49.028;8.454;2023-04-28T16:53:28;99939.28;;;20.76;62.64
1652;BME280;823;49.028;8.454;2023-04-28T16:58:28;99930.78;;;20.72;62.94
1652;BME280;823;49.028;8.454;2023-04-28T17:03:28;99927.75;;;20.56;62.93
1652;BME280;823;49.028;8.454;2023-04-28T17:08:29;99933.28;;;20.74;62.84
1652;BME280;823;49.028;8.454;2023-04-28T17:13:32;99933.25;;;20.85;62.50
1652;BME280;823;49.028;8.454;2023-04-28T17:18:33;99924.16;;;20.89;62.41
1652;BME280;823;49.028;8.454;2023-04-28T17:23:33;99929.97;;;20.93;61.95
1652;BME280;823;49.028;8.454;2023-04-28T17:28:34;99929.66;;;20.86;62.37
1652;BME280;823;49.028;8.454;2023-04-28T17:33:35;99930.81;;;20.94;62.08
1652;BME280;823;49.028;8.454;2023-04-28T17:38:36;99928.13;;;20.84;62.11
1652;BME280;823;49.028;8.454;2023-04-28T17:43:37;99940.44;;;20.83;62.19
1652;BME280;823;49.028;8.454;2023-04-28T17:48:38;99933.81;;;20.68;62.56
1652;BME280;823;49.028;8.454;2023-04-28T17:53:38;99936.31;;;20.69;62.78
1652;BME280;823;49.028;8.454;2023-04-28T17:58:39;99940.84;;;20.67;62.72
1652;BME280;823;49.028;8.454;2023-04-28T18:03:40;99935.00;;;20.64;62.42
1652;BME280;823;49.028;8.454;2023-04-28T18:08:41;99947.19;;;20.65;62.60
1652;BME280;823;49.028;8.454;2023-04-28T18:13:42;99944.63;;;20.53;62.83
1652;BME280;823;49.028;8.454;2023-04-28T18:18:42;99949.88;;;20.53;62.77
1652;BME280;823;49.028;8.454;2023-04-28T18:23:43;99961.13;;;20.44;62.78
1652;BME280;823;49.028;8.454;2023-04-28T18:28:46;99967.78;;;20.48;62.27
1652;BME280;823;49.028;8.454;2023-04-28T18:33:47;99968.19;;;20.32;63.07
1652;BME280;823;49.028;8.454;2023-04-28T18:38:47;99975.38;;;20.30;62.72
1652;BME280;823;49.028;8.454;2023-04-28T18:43:48;99986.34;;;20.24;63.04
1652;BME280;823;49.028;8.454;2023-04-28T18:48:48;99994.47;;;20.21;62.90
1652;BME280;823;49.028;8.454;2023-04-28T18:53:48;99996.28;;;20.20;62.94
1652;BME280;823;49.028;8.454;2023-04-28T18:58:49;100005.38;;;20.05;63.33
1652;BME280;823;49.028;8.454;2023-04-28T19:03:49;99999.75;;;20.10;63.18
1652;BME280;823;49.028;8.454;2023-04-28T19:08:50;100001.66;;;20.07;63.00
1652;BME280;823;49.028;8.454;2023-04-28T19:13:50;100001.78;;;20.06;63.01
1652;BME280;823;49.028;8.454;2023-04-28T19:18:51;100013.38;;;19.92;63.67
1652;BME280;823;49.028;8.454;2023-04-28T19:23:52;100020.53;;;19.90;63.59
1652;BME280;823;49.028;8.454;2023-04-28T19:28:52;100024.94;;;19.89;63.56
1652;BME280;823;49.028;8.454;2023-04-28T19:33:52;100023.97;;;19.79;64.05
1652;BME280;823;49.028;8.454;2023-04-28T19:38:53;100022.56;;;19.86;63.99
1652;BME280;823;49.028;8.454;2023-04-28T19:43:53;100023.75;;;19.94;63.68
1652;BME280;823;49.028;8.454;2023-04-28T19:48:53;100028.53;;;20.00;63.55
1652;BME280;823;49.028;8.454;2023-04-28T19:53:54;100027.31;;;20.04;63.42
1652;BME280;823;49.028;8.454;2023-04-28T19:58:54;100034.72;;;19.99;63.67
1652;BME280;823;49.028;8.454;2023-04-28T20:03:54;100040.81;;;19.99;63.45
1652;BME280;823;49.028;8.454;2023-04-28T20:08:55;100038.66;;;19.93;63.77
1652;BME280;823;49.028;8.454;2023-04-28T20:13:55;100043.44;;;19.88;63.91
1652;BME280;823;49.028;8.454;2023-04-28T20:18:56;100033.53;;;19.92;63.77
1652;BME280;823;49.028;8.454;2023-04-28T20:23:56;100034.34;;;20.03;63.32
1652;BME280;823;49.028;8.454;2023-04-28T20:28:56;100043.09;;;19.93;62.97
1652;BME280;823;49.028;8.454;2023-04-28T20:33:57;100045.06;;;19.78;62.86
1652;BME280;823;49.028;8.454;2023-04-28T20:38:58;100050.09;;;19.92;61.94
1652;BME280;823;49.028;8.454;2023-04-28T20:43:58;100057.59;;;19.74;61.99
1652;BME280;823;49.028;8.454;2023-04-28T20:48:59;100058.88;;;19.68;61.97
1652;BME280;823;49.028;8.454;2023-04-28T20:53:59;100053.53;;;19.70;61.96
1652;BME280;823;49.028;8.454;2023-04-28T20:59:00;100064.13;;;19.68;62.22
1652;BME280;823;49.028;8.454;2023-04-28T21:04:00;100067.72;;;19.67;62.00
1652;BME280;823;49.028;8.454;2023-04-28T21:09:01;100079.88;;;19.68;62.33
1652;BME280;823;49.028;8.454;2023-04-28T21:14:01;100073.69;;;19.69;62.21
1652;BME280;823;49.028;8.454;2023-04-28T21:19:01;100080.25;;;19.64;62.14
1652;BME280;823;49.028;8.454;2023-04-28T21:24:04;100077.72;;;19.51;62.67
1652;BME280;823;49.028;8.454;2023-04-28T21:29:04;100079.00;;;19.45;63.07
1652;BME280;823;49.028;8.454;2023-04-28T21:34:05;100082.09;;;19.39;63.25
1652;BME280;823;49.028;8.454;2023-04-28T21:39:05;100088.28;;;19.38;63.24
1652;BME280;823;49.028;8.454;2023-04-28T21:44:06;100088.75;;;19.32;63.03
1652;BME280;823;49.028;8.454;2023-04-28T21:49:07;100089.00;;;19.29;63.13
1652;BME280;823;49.028;8.454;2023-04-28T21:54:07;100091.78;;;19.14;63.59
1652;BME280;823;49.028;8.454;2023-04-28T21:59:08;100087.72;;;19.10;63.70
1652;BME280;823;49.028;8.454;2023-04-28T22:04:08;100083.25;;;18.99;63.90
1652;BME280;823;49.028;8.454;2023-04-28T22:09:09;100089.91;;;18.92;64.00
1652;BME280;823;49.028;8.454;2023-04-28T22:14:10;100099.00;;;18.86;64.26
1652;BME280;823;49.028;8.454;2023-04-28T22:19:10;100090.44;;;18.84;63.75
1652;BME280;823;49.028;8.454;2023-04-28T22:24:11;100082.47;;;18.86;63.83
1652;BME280;823;49.028;8.454;2023-04-28T22:29:12;100092.94;;;18.86;63.48
1652;BME280;823;49.028;8.454;2023-04-28T22:34:12;100084.34;;;18.84;63.42
1652;BME280;823;49.028;8.454;2023-04-28T22:39:12;100091.09;;;18.75;63.44
1652;BME280;823;49.028;8.454;2023-04-28T22:44:14;100096.34;;;18.75;63.40
1652;BME280;823;49.028;8.454;2023-04-28T22:49:14;100095.81;;;18.70;63.57
1652;BME280;823;49.028;8.454;2023-04-28T22:54:15;100097.72;;;18.68;63.03
1652;BME280;823;49.028;8.454;2023-04-28T22:59:16;100096.28;;;18.64;63.19
1652;BME280;823;49.028;8.454;2023-04-28T23:04:16;100093.13;;;18.59;63.27
1652;BME280;823;49.028;8.454;2023-04-28T23:09:17;100094.00;;;18.46;63.47
1652;BME280;823;49.028;8.454;2023-04-28T23:14:17;100092.56;;;18.42;63.54
1652;BME280;823;49.028;8.454;2023-04-28T23:19:17;100093.94;;;18.35;64.02
1652;BME280;823;49.028;8.454;2023-04-28T23:24:18;100099.28;;;18.33;64.01
1652;BME280;823;49.028;8.454;2023-04-28T23:29:18;100098.88;;;18.27;64.00
1652;BME280;823;49.028;8.454;2023-04-28T23:34:22;100104.53;;;18.20;64.79
1652;BME280;823;49.028;8.454;2023-04-28T23:39:23;100112.19;;;18.24;64.53
1652;BME280;823;49.028;8.454;2023-04-28T23:44:24;100109.56;;;18.24;64.51
1652;BME280;823;49.028;8.454;2023-04-28T23:49:24;100106.84;;;18.25;64.02
1652;BME280;823;49.028;8.454;2023-04-28T23:54:25;100106.00;;;18.12;64.56
1652;BME280;823;49.028;8.454;2023-04-28T23:59:25;100105.69;;;18.16;64.62
